sensor_id;sensor_type;location;lat;lon;timestamp;P1;durP1;ratioP1;P2;durP2;ratioP2
72974;SDS011;61166;54.228;37.632;2022-11-12T00:00:52;11.95;;;5.70;;
72974;SDS011;61166;54.228;37.632;2022-11-12T00:03:19;11.82;;;4.95;;
72974;SDS011;61166;54.228;37.632;2022-11-12T00:05:46;8.55;;;4.05;;
72974;SDS011;61166;54.228;37.632;2022-11-12T00:08:13;14.15;;;6.20;;
72974;SDS011;61166;54.228;37.632;2022-11-12T00:10:40;14.23;;;5.97;;
72974;SDS011;61166;54.228;37.632;2022-11-12T00:13:06;10.60;;;5.25;;
72974;SDS011;61166;54.228;37.632;2022-11-12T00:15:33;12.45;;;5.32;;
72974;SDS011;61166;54.228;37.632;2022-11-12T00:18:00;13.00;;;5.75;;
72974;SDS011;61166;54.228;37.632;2022-11-12T00:20:26;11.63;;;5.63;;
72974;SDS011;61166;54.228;37.632;2022-11-12T00:22:53;9.40;;;4.93;;
72974;SDS011;61166;54.228;37.632;2022-11-12T00:25:20;10.60;;;4.30;;
72974;SDS011;61166;54.228;37.632;2022-11-12T00:27:46;11.75;;;4.93;;
72974;SDS011;61166;54.228;37.632;2022-11-12T00:30:13;10.70;;;4.18;;
72974;SDS011;61166;54.228;37.632;2022-11-12T00:32:39;7.82;;;3.65;;
72974;SDS011;61166;54.228;37.632;2022-11-12T00:35:06;17.57;;;5.10;;
72974;SDS011;61166;54.228;37.632;2022-11-12T00:37:38;11.15;;;5.07;;
72974;SDS011;61166;54.228;37.632;2022-11-12T00:40:05;13.23;;;5.10;;
72974;SDS011;61166;54.228;37.632;2022-11-12T00:42:33;8.82;;;3.17;;
72974;SDS011;61166;54.228;37.632;2022-11-12T00:45:00;11.25;;;4.65;;
72974;SDS011;61166;54.228;37.632;2022-11-12T00:47:27;11.90;;;4.60;;
72974;SDS011;61166;54.228;37.632;2022-11-12T00:49:53;12.10;;;4.75;;
72974;SDS011;61166;54.228;37.632;2022-11-12T00:52:20;10.80;;;5.10;;
72974;SDS011;61166;54.228;37.632;2022-11-12T00:54:46;13.88;;;5.70;;
72974;SDS011;61166;54.228;37.632;2022-11-12T00:57:13;10.13;;;4.20;;
72974;SDS011;61166;54.228;37.632;2022-11-12T00:59:41;12.13;;;5.30;;
72974;SDS011;61166;54.228;37.632;2022-11-12T01:02:07;12.55;;;5.10;;
72974;SDS011;61166;54.228;37.632;2022-11-12T01:04:34;14.23;;;5.70;;
72974;SDS011;61166;54.228;37.632;2022-11-12T01:07:00;12.30;;;4.55;;
72974;SDS011;61166;54.228;37.632;2022-11-12T01:09:27;8.23;;;3.63;;
72974;SDS011;61166;54.228;37.632;2022-11-12T01:11:54;10.50;;;5.10;;
72974;SDS011;61166;54.228;37.632;2022-11-12T01:14:20;10.18;;;3.83;;
72974;SDS011;61166;54.228;37.632;2022-11-12T01:16:47;13.93;;;4.88;;
72974;SDS011;61166;54.228;37.632;2022-11-12T01:19:14;10.25;;;4.35;;
72974;SDS011;61166;54.228;37.632;2022-11-12T01:21:41;12.40;;;5.07;;
72974;SDS011;61166;54.228;37.632;2022-11-12T01:24:09;9.10;;;4.27;;
72974;SDS011;61166;54.228;37.632;2022-11-12T01:26:37;13.48;;;4.88;;
72974;SDS011;61166;54.228;37.632;2022-11-12T01:29:04;10.57;;;4.30;;
72974;SDS011;61166;54.228;37.632;2022-11-12T01:31:32;9.30;;;4.03;;
72974;SDS011;61166;54.228;37.632;2022-11-12T01:34:01;10.15;;;4.78;;
72974;SDS011;61166;54.228;37.632;2022-11-12T01:36:37;13.43;;;4.77;;
72974;SDS011;61166;54.228;37.632;2022-11-12T01:39:05;9.65;;;3.05;;
72974;SDS011;61166;54.228;37.632;2022-11-12T01:41:33;10.50;;;4.53;;
72974;SDS011;61166;54.228;37.632;2022-11-12T01:46:49;9.95;;;4.28;;
72974;SDS011;61166;54.228;37.632;2022-11-12T01:49:32;9.10;;;4.33;;
72974;SDS011;61166;54.228;37.632;2022-11-12T01:52:05;8.20;;;3.90;;
72974;SDS011;61166;54.228;37.632;2022-11-12T01:54:38;9.15;;;4.25;;
72974;SDS011;61166;54.228;37.632;2022-11-12T01:57:05;12.27;;;4.40;;
72974;SDS011;61166;54.228;37.632;2022-11-12T01:59:36;12.75;;;4.30;;
72974;SDS011;61166;54.228;37.632;2022-11-12T02:02:06;9.90;;;4.30;;
72974;SDS011;61166;54.228;37.632;2022-11-12T02:04:33;8.00;;;3.25;;
72974;SDS011;61166;54.228;37.632;2022-11-12T02:07:03;9.57;;;4.38;;
72974;SDS011;61166;54.228;37.632;2022-11-12T02:09:33;11.90;;;4.10;;
72974;SDS011;61166;54.228;37.632;2022-11-12T02:12:01;9.77;;;3.38;;
72974;SDS011;61166;54.228;37.632;2022-11-12T02:14:28;8.50;;;3.20;;
72974;SDS011;61166;54.228;37.632;2022-11-12T02:16:55;9.88;;;2.83;;
72974;SDS011;61166;54.228;37.632;2022-11-12T02:19:23;8.15;;;3.65;;
72974;SDS011;61166;54.228;37.632;2022-11-12T02:21:50;9.43;;;4.30;;
72974;SDS011;61166;54.228;37.632;2022-11-12T02:26:44;8.83;;;4.50;;
72974;SDS011;61166;54.228;37.632;2022-11-12T02:29:12;7.55;;;3.20;;
72974;SDS011;61166;54.228;37.632;2022-11-12T02:31:39;13.18;;;3.85;;
72974;SDS011;61166;54.228;37.632;2022-11-12T02:34:05;9.57;;;3.75;;
72974;SDS011;61166;54.228;37.632;2022-11-12T02:36:32;8.15;;;3.88;;
72974;SDS011;61166;54.228;37.632;2022-11-12T02:38:59;11.53;;;4.23;;
72974;SDS011;61166;54.228;37.632;2022-11-12T02:41:25;10.88;;;3.90;;
72974;SDS011;61166;54.228;37.632;2022-11-12T02:43:52;10.07;;;4.60;;
72974;SDS011;61166;54.228;37.632;2022-11-12T02:46:20;12.18;;;4.05;;
72974;SDS011;61166;54.228;37.632;2022-11-12T02:48:46;10.00;;;3.67;;
72974;SDS011;61166;54.228;37.632;2022-11-12T02:51:13;8.90;;;3.73;;
72974;SDS011;61166;54.228;37.632;2022-11-12T02:53:40;9.98;;;3.30;;
72974;SDS011;61166;54.228;37.632;2022-11-12T02:56:06;9.70;;;3.75;;
72974;SDS011;61166;54.228;37.632;2022-11-12T02:58:33;8.95;;;3.60;;
72974;SDS011;61166;54.228;37.632;2022-11-12T03:01:00;9.40;;;3.90;;
72974;SDS011;61166;54.228;37.632;2022-11-12T03:03:26;8.87;;;3.27;;
72974;SDS011;61166;54.228;37.632;2022-11-12T03:05:54;6.70;;;3.13;;
72974;SDS011;61166;54.228;37.632;2022-11-12T03:08:22;7.93;;;3.28;;
72974;SDS011;61166;54.228;37.632;2022-11-12T03:10:50;11.95;;;3.58;;
72974;SDS011;61166;54.228;37.632;2022-11-12T03:13:17;7.43;;;3.05;;
72974;SDS011;61166;54.228;37.632;2022-11-12T03:15:44;9.53;;;3.07;;
72974;SDS011;61166;54.228;37.632;2022-11-12T03:18:11;6.57;;;2.65;;
72974;SDS011;61166;54.228;37.632;2022-11-12T03:20:38;7.80;;;2.83;;
72974;SDS011;61166;54.228;37.632;2022-11-12T03:23:06;9.68;;;3.17;;
72974;SDS011;61166;54.228;37.632;2022-11-12T03:25:35;7.88;;;2.72;;
72974;SDS011;61166;54.228;37.632;2022-11-12T03:28:07;8.73;;;2.97;;
72974;SDS011;61166;54.228;37.632;2022-11-12T03:30:37;9.02;;;3.25;;
72974;SDS011;61166;54.228;37.632;2022-11-12T03:33:07;12.27;;;3.22;;
72974;SDS011;61166;54.228;37.632;2022-11-12T03:35:36;6.05;;;2.47;;
72974;SDS011;61166;54.228;37.632;2022-11-12T03:38:03;8.70;;;2.85;;
72974;SDS011;61166;54.228;37.632;2022-11-12T03:40:31;6.87;;;3.20;;
72974;SDS011;61166;54.228;37.632;2022-11-12T03:42:58;7.57;;;3.20;;
72974;SDS011;61166;54.228;37.632;2022-11-12T03:45:26;9.85;;;2.90;;
72974;SDS011;61166;54.228;37.632;2022-11-12T03:47:54;10.43;;;3.08;;
72974;SDS011;61166;54.228;37.632;2022-11-12T03:50:23;7.30;;;3.25;;
72974;SDS011;61166;54.228;37.632;2022-11-12T03:52:52;8.67;;;3.70;;
72974;SDS011;61166;54.228;37.632;2022-11-12T03:55:21;6.03;;;2.72;;
72974;SDS011;61166;54.228;37.632;2022-11-12T03:57:50;9.68;;;3.08;;
72974;SDS011;61166;54.228;37.632;2022-11-12T04:00:18;7.13;;;3.67;;
72974;SDS011;61166;54.228;37.632;2022-11-12T04:02:45;8.90;;;3.78;;
72974;SDS011;61166;54.228;37.632;2022-11-12T04:08:18;7.05;;;3.60;;
72974;SDS011;61166;54.228;37.632;2022-11-12T04:10:46;8.63;;;3.55;;
72974;SDS011;61166;54.228;37.632;2022-11-12T04:13:13;7.05;;;3.70;;
72974;SDS011;61166;54.228;37.632;2022-11-12T04:15:40;6.72;;;3.17;;
72974;SDS011;61166;54.228;37.632;2022-11-12T04:18:06;9.40;;;3.30;;
72974;SDS011;61166;54.228;37.632;2022-11-12T04:20:33;6.45;;;2.85;;
72974;SDS011;61166;54.228;37.632;2022-11-12T04:22:59;7.53;;;4.10;;
72974;SDS011;61166;54.228;37.632;2022-11-12T04:25:26;9.70;;;4.45;;
72974;SDS011;61166;54.228;37.632;2022-11-12T04:27:52;6.53;;;3.17;;
72974;SDS011;61166;54.228;37.632;2022-11-12T04:30:19;8.13;;;4.03;;
72974;SDS011;61166;54.228;37.632;2022-11-12T04:35:12;7.65;;;4.05;;
72974;SDS011;61166;54.228;37.632;2022-11-12T04:37:39;9.35;;;3.75;;
72974;SDS011;61166;54.228;37.632;2022-11-12T04:40:06;7.30;;;3.72;;
72974;SDS011;61166;54.228;37.632;2022-11-12T04:42:33;12.73;;;4.40;;
72974;SDS011;61166;54.228;37.632;2022-11-12T04:44:59;8.57;;;3.70;;
72974;SDS011;61166;54.228;37.632;2022-11-12T04:50:01;11.80;;;4.70;;
72974;SDS011;61166;54.228;37.632;2022-11-12T04:52:30;9.55;;;4.25;;
72974;SDS011;61166;54.228;37.632;2022-11-12T04:54:57;10.37;;;4.50;;
72974;SDS011;61166;54.228;37.632;2022-11-12T04:57:24;8.95;;;3.65;;
72974;SDS011;61166;54.228;37.632;2022-11-12T04:59:51;9.00;;;3.10;;
72974;SDS011;61166;54.228;37.632;2022-11-12T05:02:18;11.07;;;4.18;;
72974;SDS011;61166;54.228;37.632;2022-11-12T05:04:45;8.60;;;4.60;;
72974;SDS011;61166;54.228;37.632;2022-11-12T05:07:12;9.17;;;4.20;;
72974;SDS011;61166;54.228;37.632;2022-11-12T05:09:39;8.60;;;3.65;;
72974;SDS011;61166;54.228;37.632;2022-11-12T05:12:06;7.82;;;4.00;;
72974;SDS011;61166;54.228;37.632;2022-11-12T05:14:34;10.98;;;4.07;;
72974;SDS011;61166;54.228;37.632;2022-11-12T05:17:01;7.82;;;3.63;;
72974;SDS011;61166;54.228;37.632;2022-11-12T05:19:27;10.90;;;4.40;;
72974;SDS011;61166;54.228;37.632;2022-11-12T05:21:54;9.60;;;3.70;;
72974;SDS011;61166;54.228;37.632;2022-11-12T05:24:20;5.65;;;1.85;;
72974;SDS011;61166;54.228;37.632;2022-11-12T05:27:13;8.25;;;4.40;;
72974;SDS011;61166;54.228;37.632;2022-11-12T05:29:42;11.00;;;4.35;;
72974;SDS011;61166;54.228;37.632;2022-11-12T05:32:13;10.37;;;4.60;;
72974;SDS011;61166;54.228;37.632;2022-11-12T05:34:41;10.48;;;4.70;;
72974;SDS011;61166;54.228;37.632;2022-11-12T05:37:08;8.48;;;4.22;;
72974;SDS011;61166;54.228;37.632;2022-11-12T05:39:36;14.50;;;4.53;;
72974;SDS011;61166;54.228;37.632;2022-11-12T05:42:03;11.30;;;4.22;;
72974;SDS011;61166;54.228;37.632;2022-11-12T05:44:38;9.83;;;4.60;;
72974;SDS011;61166;54.228;37.632;2022-11-12T05:47:05;8.15;;;4.10;;
72974;SDS011;61166;54.228;37.632;2022-11-12T05:49:32;9.23;;;4.85;;
72974;SDS011;61166;54.228;37.632;2022-11-12T05:51:58;12.88;;;5.68;;
72974;SDS011;61166;54.228;37.632;2022-11-12T05:54:25;12.50;;;4.43;;
72974;SDS011;61166;54.228;37.632;2022-11-12T05:56:51;8.97;;;4.60;;
72974;SDS011;61166;54.228;37.632;2022-11-12T05:59:20;8.93;;;4.32;;
72974;SDS011;61166;54.228;37.632;2022-11-12T06:01:47;8.88;;;4.30;;
72974;SDS011;61166;54.228;37.632;2022-11-12T06:04:14;9.43;;;4.28;;
72974;SDS011;61166;54.228;37.632;2022-11-12T06:06:43;11.43;;;4.38;;
72974;SDS011;61166;54.228;37.632;2022-11-12T06:09:10;12.33;;;4.90;;
72974;SDS011;61166;54.228;37.632;2022-11-12T06:11:37;7.93;;;4.43;;
72974;SDS011;61166;54.228;37.632;2022-11-12T06:14:04;9.75;;;4.93;;
72974;SDS011;61166;54.228;37.632;2022-11-12T06:16:31;8.95;;;4.85;;
72974;SDS011;61166;54.228;37.632;2022-11-12T06:18:58;12.20;;;5.15;;
72974;SDS011;61166;54.228;37.632;2022-11-12T06:21:24;14.13;;;5.60;;
72974;SDS011;61166;54.228;37.632;2022-11-12T06:23:52;11.73;;;4.50;;
72974;SDS011;61166;54.228;37.632;2022-11-12T06:26:24;12.65;;;5.50;;
72974;SDS011;61166;54.228;37.632;2022-11-12T06:28:52;8.50;;;4.80;;
72974;SDS011;61166;54.228;37.632;2022-11-12T06:31:19;10.00;;;4.38;;
72974;SDS011;61166;54.228;37.632;2022-11-12T06:33:46;9.60;;;4.20;;
72974;SDS011;61166;54.228;37.632;2022-11-12T06:36:14;9.88;;;4.40;;
72974;SDS011;61166;54.228;37.632;2022-11-12T06:38:43;9.73;;;4.65;;
72974;SDS011;61166;54.228;37.632;2022-11-12T06:41:10;10.68;;;5.25;;
72974;SDS011;61166;54.228;37.632;2022-11-12T06:43:38;13.10;;;6.38;;
72974;SDS011;61166;54.228;37.632;2022-11-12T06:46:12;10.60;;;5.30;;
72974;SDS011;61166;54.228;37.632;2022-11-12T06:48:40;9.68;;;4.65;;
72974;SDS011;61166;54.228;37.632;2022-11-12T06:51:08;9.65;;;5.15;;
72974;SDS011;61166;54.228;37.632;2022-11-12T06:53:42;11.35;;;5.35;;
72974;SDS011;61166;54.228;37.632;2022-11-12T06:56:11;10.48;;;5.70;;
72974;SDS011;61166;54.228;37.632;2022-11-12T06:58:38;12.77;;;5.90;;
72974;SDS011;61166;54.228;37.632;2022-11-12T07:01:06;8.98;;;4.53;;
72974;SDS011;61166;54.228;37.632;2022-11-12T07:03:43;7.63;;;4.88;;
72974;SDS011;61166;54.228;37.632;2022-11-12T07:06:11;9.15;;;4.55;;
72974;SDS011;61166;54.228;37.632;2022-11-12T07:08:40;9.40;;;4.55;;
72974;SDS011;61166;54.228;37.632;2022-11-12T07:11:08;8.53;;;3.80;;
72974;SDS011;61166;54.228;37.632;2022-11-12T07:13:35;9.75;;;4.38;;
72974;SDS011;61166;54.228;37.632;2022-11-12T07:16:03;10.60;;;5.38;;
72974;SDS011;61166;54.228;37.632;2022-11-12T07:18:31;10.07;;;6.47;;
72974;SDS011;61166;54.228;37.632;2022-11-12T07:20:59;11.50;;;5.50;;
72974;SDS011;61166;54.228;37.632;2022-11-12T07:23:34;11.67;;;5.97;;
72974;SDS011;61166;54.228;37.632;2022-11-12T07:26:03;9.75;;;6.18;;
72974;SDS011;61166;54.228;37.632;2022-11-12T07:28:37;9.45;;;5.50;;
72974;SDS011;61166;54.228;37.632;2022-11-12T07:31:05;12.98;;;5.25;;
72974;SDS011;61166;54.228;37.632;2022-11-12T07:33:33;9.20;;;4.47;;
72974;SDS011;61166;54.228;37.632;2022-11-12T07:36:00;7.83;;;4.47;;
72974;SDS011;61166;54.228;37.632;2022-11-12T07:38:35;9.18;;;3.95;;
72974;SDS011;61166;54.228;37.632;2022-11-12T07:41:04;6.63;;;4.28;;
72974;SDS011;61166;54.228;37.632;2022-11-12T07:43:32;7.85;;;4.28;;
72974;SDS011;61166;54.228;37.632;2022-11-12T07:46:01;6.65;;;3.72;;
72974;SDS011;61166;54.228;37.632;2022-11-12T07:48:36;9.63;;;3.43;;
72974;SDS011;61166;54.228;37.632;2022-11-12T07:53:31;6.22;;;3.55;;
72974;SDS011;61166;54.228;37.632;2022-11-12T07:55:59;7.68;;;4.22;;
72974;SDS011;61166;54.228;37.632;2022-11-12T07:58:28;8.05;;;3.22;;
72974;SDS011;61166;54.228;37.632;2022-11-12T08:00:57;8.93;;;3.70;;
72974;SDS011;61166;54.228;37.632;2022-11-12T08:03:23;7.80;;;3.80;;
72974;SDS011;61166;54.228;37.632;2022-11-12T08:05:50;6.93;;;4.28;;
72974;SDS011;61166;54.228;37.632;2022-11-12T08:08:17;6.22;;;3.45;;
72974;SDS011;61166;54.228;37.632;2022-11-12T08:10:43;6.28;;;3.42;;
72974;SDS011;61166;54.228;37.632;2022-11-12T08:13:10;7.77;;;3.40;;
72974;SDS011;61166;54.228;37.632;2022-11-12T08:15:37;8.15;;;3.53;;
72974;SDS011;61166;54.228;37.632;2022-11-12T08:18:03;6.35;;;3.53;;
72974;SDS011;61166;54.228;37.632;2022-11-12T08:20:30;7.30;;;3.25;;
72974;SDS011;61166;54.228;37.632;2022-11-12T08:22:59;8.38;;;3.30;;
72974;SDS011;61166;54.228;37.632;2022-11-12T08:25:26;6.30;;;3.40;;
72974;SDS011;61166;54.228;37.632;2022-11-12T08:27:56;5.80;;;1.70;;
72974;SDS011;61166;54.228;37.632;2022-11-12T08:30:25;7.13;;;3.22;;
72974;SDS011;61166;54.228;37.632;2022-11-12T08:32:59;4.70;;;2.55;;
72974;SDS011;61166;54.228;37.632;2022-11-12T08:35:27;6.75;;;3.40;;
72974;SDS011;61166;54.228;37.632;2022-11-12T08:38:02;7.17;;;3.13;;
72974;SDS011;61166;54.228;37.632;2022-11-12T08:40:30;6.72;;;3.30;;
72974;SDS011;61166;54.228;37.632;2022-11-12T08:42:58;6.90;;;3.60;;
72974;SDS011;61166;54.228;37.632;2022-11-12T08:45:26;7.82;;;2.75;;
72974;SDS011;61166;54.228;37.632;2022-11-12T08:47:57;6.88;;;2.92;;
72974;SDS011;61166;54.228;37.632;2022-11-12T08:50:25;6.43;;;2.90;;
72974;SDS011;61166;54.228;37.632;2022-11-12T08:52:52;7.30;;;3.72;;
72974;SDS011;61166;54.228;37.632;2022-11-12T08:55:19;6.10;;;3.55;;
72974;SDS011;61166;54.228;37.632;2022-11-12T08:57:45;8.30;;;4.55;;
72974;SDS011;61166;54.228;37.632;2022-11-12T09:00:12;7.88;;;3.60;;
72974;SDS011;61166;54.228;37.632;2022-11-12T09:02:39;6.77;;;3.07;;
72974;SDS011;61166;54.228;37.632;2022-11-12T09:05:06;8.05;;;4.20;;
72974;SDS011;61166;54.228;37.632;2022-11-12T09:07:33;6.30;;;3.90;;
72974;SDS011;61166;54.228;37.632;2022-11-12T09:10:16;6.03;;;3.45;;
72974;SDS011;61166;54.228;37.632;2022-11-12T09:12:42;6.53;;;3.30;;
72974;SDS011;61166;54.228;37.632;2022-11-12T09:15:09;5.33;;;2.90;;
72974;SDS011;61166;54.228;37.632;2022-11-12T09:17:56;7.57;;;3.42;;
72974;SDS011;61166;54.228;37.632;2022-11-12T09:20:24;7.22;;;3.67;;
72974;SDS011;61166;54.228;37.632;2022-11-12T09:22:51;7.78;;;3.40;;
72974;SDS011;61166;54.228;37.632;2022-11-12T09:25:18;6.70;;;3.50;;
72974;SDS011;61166;54.228;37.632;2022-11-12T09:27:45;8.40;;;3.40;;
72974;SDS011;61166;54.228;37.632;2022-11-12T09:30:14;7.45;;;3.42;;
72974;SDS011;61166;54.228;37.632;2022-11-12T09:32:41;5.43;;;2.42;;
72974;SDS011;61166;54.228;37.632;2022-11-12T09:35:07;6.78;;;3.15;;
72974;SDS011;61166;54.228;37.632;2022-11-12T09:37:36;4.97;;;2.67;;
72974;SDS011;61166;54.228;37.632;2022-11-12T09:40:04;8.03;;;2.77;;
72974;SDS011;61166;54.228;37.632;2022-11-12T09:42:32;6.55;;;2.80;;
72974;SDS011;61166;54.228;37.632;2022-11-12T09:47:45;6.22;;;3.28;;
72974;SDS011;61166;54.228;37.632;2022-11-12T09:53:00;7.77;;;3.40;;
72974;SDS011;61166;54.228;37.632;2022-11-12T09:55:44;6.07;;;3.13;;
72974;SDS011;61166;54.228;37.632;2022-11-12T09:58:15;6.68;;;3.72;;
72974;SDS011;61166;54.228;37.632;2022-11-12T10:00:57;6.60;;;3.60;;
72974;SDS011;61166;54.228;37.632;2022-11-12T10:03:36;8.85;;;4.18;;
72974;SDS011;61166;54.228;37.632;2022-11-12T10:06:11;9.47;;;4.70;;
72974;SDS011;61166;54.228;37.632;2022-11-12T10:08:50;8.23;;;3.50;;
72974;SDS011;61166;54.228;37.632;2022-11-12T10:15:42;5.43;;;2.90;;
72974;SDS011;61166;54.228;37.632;2022-11-12T10:17:41;5.85;;;3.13;;
72974;SDS011;61166;54.228;37.632;2022-11-12T10:20:20;6.10;;;2.13;;
72974;SDS011;61166;54.228;37.632;2022-11-12T10:25:45;5.32;;;2.45;;
72974;SDS011;61166;54.228;37.632;2022-11-12T10:28:26;8.70;;;3.67;;
72974;SDS011;61166;54.228;37.632;2022-11-12T10:31:20;8.40;;;3.33;;
72974;SDS011;61166;54.228;37.632;2022-11-12T10:33:47;6.17;;;2.50;;
72974;SDS011;61166;54.228;37.632;2022-11-12T10:36:16;6.70;;;2.78;;
72974;SDS011;61166;54.228;37.632;2022-11-12T10:38:44;4.80;;;2.50;;
72974;SDS011;61166;54.228;37.632;2022-11-12T10:41:22;9.43;;;2.83;;
72974;SDS011;61166;54.228;37.632;2022-11-12T10:46:37;4.60;;;2.47;;
72974;SDS011;61166;54.228;37.632;2022-11-12T10:51:54;5.55;;;2.83;;
72974;SDS011;61166;54.228;37.632;2022-11-12T10:56:52;5.15;;;2.50;;
72974;SDS011;61166;54.228;37.632;2022-11-12T10:59:22;7.97;;;3.00;;
72974;SDS011;61166;54.228;37.632;2022-11-12T11:01:53;5.95;;;2.60;;
72974;SDS011;61166;54.228;37.632;2022-11-12T11:06:57;6.45;;;2.83;;
72974;SDS011;61166;54.228;37.632;2022-11-12T11:09:25;5.65;;;2.50;;
72974;SDS011;61166;54.228;37.632;2022-11-12T11:11:52;5.53;;;2.37;;
72974;SDS011;61166;54.228;37.632;2022-11-12T11:16:53;6.22;;;3.08;;
72974;SDS011;61166;54.228;37.632;2022-11-12T11:19:24;6.03;;;2.72;;
72974;SDS011;61166;54.228;37.632;2022-11-12T11:22:02;5.97;;;2.28;;
72974;SDS011;61166;54.228;37.632;2022-11-12T11:24:49;4.30;;;2.13;;
72974;SDS011;61166;54.228;37.632;2022-11-12T11:30:17;4.90;;;2.50;;
72974;SDS011;61166;54.228;37.632;2022-11-12T11:40:51;5.57;;;2.17;;
72974;SDS011;61166;54.228;37.632;2022-11-12T11:46:20;4.55;;;2.00;;
72974;SDS011;61166;54.228;37.632;2022-11-12T11:52:11;5.73;;;2.93;;
72974;SDS011;61166;54.228;37.632;2022-11-12T11:57:54;4.93;;;2.58;;
72974;SDS011;61166;54.228;37.632;2022-11-12T12:01:03;4.30;;;2.53;;
72974;SDS011;61166;54.228;37.632;2022-11-12T12:06:34;4.97;;;2.47;;
72974;SDS011;61166;54.228;37.632;2022-11-12T12:19:44;6.77;;;2.50;;
72974;SDS011;61166;54.228;37.632;2022-11-12T12:22:17;8.18;;;2.97;;
72974;SDS011;61166;54.228;37.632;2022-11-12T12:24:52;7.38;;;2.72;;
72974;SDS011;61166;54.228;37.632;2022-11-12T12:27:29;6.80;;;2.03;;
72974;SDS011;61166;54.228;37.632;2022-11-12T12:30:06;6.82;;;2.95;;
72974;SDS011;61166;54.228;37.632;2022-11-12T12:38:22;5.78;;;2.88;;
72974;SDS011;61166;54.228;37.632;2022-11-12T12:40:56;5.40;;;2.40;;
72974;SDS011;61166;54.228;37.632;2022-11-12T12:43:32;7.20;;;2.90;;
72974;SDS011;61166;54.228;37.632;2022-11-12T12:46:02;7.43;;;2.50;;
72974;SDS011;61166;54.228;37.632;2022-11-12T12:48:35;4.95;;;2.17;;
72974;SDS011;61166;54.228;37.632;2022-11-12T12:51:07;5.40;;;2.63;;
72974;SDS011;61166;54.228;37.632;2022-11-12T12:53:34;4.18;;;2.03;;
72974;SDS011;61166;54.228;37.632;2022-11-12T12:58:43;5.07;;;2.40;;
72974;SDS011;61166;54.228;37.632;2022-11-12T13:03:50;5.28;;;2.58;;
72974;SDS011;61166;54.228;37.632;2022-11-12T13:06:27;6.35;;;2.97;;
72974;SDS011;61166;54.228;37.632;2022-11-12T13:09:23;5.25;;;2.20;;
72974;SDS011;61166;54.228;37.632;2022-11-12T13:11:51;6.47;;;2.50;;
72974;SDS011;61166;54.228;37.632;2022-11-12T13:16:57;6.13;;;2.80;;
72974;SDS011;61166;54.228;37.632;2022-11-12T13:19:32;5.97;;;2.60;;
72974;SDS011;61166;54.228;37.632;2022-11-12T13:37:56;7.20;;;2.23;;
72974;SDS011;61166;54.228;37.632;2022-11-12T13:48:34;3.00;;;1.40;;
72974;SDS011;61166;54.228;37.632;2022-11-12T13:51:05;3.57;;;1.40;;
72974;SDS011;61166;54.228;37.632;2022-11-12T13:53:49;3.13;;;1.58;;
72974;SDS011;61166;54.228;37.632;2022-11-12T13:56:28;3.38;;;1.52;;
72974;SDS011;61166;54.228;37.632;2022-11-12T13:59:12;4.72;;;2.03;;
72974;SDS011;61166;54.228;37.632;2022-11-12T14:01:40;4.55;;;2.60;;
72974;SDS011;61166;54.228;37.632;2022-11-12T14:04:12;6.70;;;2.63;;
72974;SDS011;61166;54.228;37.632;2022-11-12T14:06:41;6.25;;;2.80;;
72974;SDS011;61166;54.228;37.632;2022-11-12T14:20:22;3.90;;;1.83;;
72974;SDS011;61166;54.228;37.632;2022-11-12T14:23:19;4.25;;;2.13;;
72974;SDS011;61166;54.228;37.632;2022-11-12T14:25:51;4.25;;;1.50;;
72974;SDS011;61166;54.228;37.632;2022-11-12T14:28:29;3.60;;;1.58;;
72974;SDS011;61166;54.228;37.632;2022-11-12T14:30:58;5.50;;;1.60;;
72974;SDS011;61166;54.228;37.632;2022-11-12T14:33:27;5.63;;;1.38;;
72974;SDS011;61166;54.228;37.632;2022-11-12T14:36:04;5.03;;;1.80;;
72974;SDS011;61166;54.228;37.632;2022-11-12T14:38:36;4.75;;;1.85;;
72974;SDS011;61166;54.228;37.632;2022-11-12T14:41:19;3.40;;;1.63;;
72974;SDS011;61166;54.228;37.632;2022-11-12T14:43:53;3.67;;;1.40;;
72974;SDS011;61166;54.228;37.632;2022-11-12T14:46:50;4.85;;;1.65;;
72974;SDS011;61166;54.228;37.632;2022-11-12T14:49:39;3.88;;;1.50;;
72974;SDS011;61166;54.228;37.632;2022-11-12T14:54:57;3.28;;;1.20;;
72974;SDS011;61166;54.228;37.632;2022-11-12T14:57:31;3.90;;;1.43;;
72974;SDS011;61166;54.228;37.632;2022-11-12T14:59:57;2.20;;;1.10;;
72974;SDS011;61166;54.228;37.632;2022-11-12T15:02:28;2.95;;;1.15;;
72974;SDS011;61166;54.228;37.632;2022-11-12T15:05:18;2.72;;;1.10;;
72974;SDS011;61166;54.228;37.632;2022-11-12T15:13:09;2.67;;;0.98;;
72974;SDS011;61166;54.228;37.632;2022-11-12T15:15:48;3.35;;;1.23;;
72974;SDS011;61166;54.228;37.632;2022-11-12T15:18:24;2.58;;;0.85;;
72974;SDS011;61166;54.228;37.632;2022-11-12T15:23:35;5.00;;;0.93;;
72974;SDS011;61166;54.228;37.632;2022-11-12T15:26:02;2.38;;;0.88;;
72974;SDS011;61166;54.228;37.632;2022-11-12T15:28:29;15.38;;;9.45;;
72974;SDS011;61166;54.228;37.632;2022-11-12T15:31:45;3.33;;;1.40;;
72974;SDS011;61166;54.228;37.632;2022-11-12T15:33:46;3.60;;;0.90;;
72974;SDS011;61166;54.228;37.632;2022-11-12T15:36:16;2.53;;;0.90;;
72974;SDS011;61166;54.228;37.632;2022-11-12T15:38:50;2.85;;;0.90;;
72974;SDS011;61166;54.228;37.632;2022-11-12T15:41:20;2.33;;;0.68;;
72974;SDS011;61166;54.228;37.632;2022-11-12T15:43:51;2.47;;;0.90;;
72974;SDS011;61166;54.228;37.632;2022-11-12T15:46:18;2.58;;;0.80;;
72974;SDS011;61166;54.228;37.632;2022-11-12T15:48:45;2.50;;;0.67;;
72974;SDS011;61166;54.228;37.632;2022-11-12T15:51:18;2.55;;;0.73;;
72974;SDS011;61166;54.228;37.632;2022-11-12T15:53:44;2.08;;;0.65;;
72974;SDS011;61166;54.228;37.632;2022-11-12T15:56:15;2.63;;;0.80;;
72974;SDS011;61166;54.228;37.632;2022-11-12T15:58:44;2.20;;;0.63;;
72974;SDS011;61166;54.228;37.632;2022-11-12T16:01:11;2.50;;;0.80;;
72974;SDS011;61166;54.228;37.632;2022-11-12T16:03:37;2.95;;;1.05;;
72974;SDS011;61166;54.228;37.632;2022-11-12T16:06:04;2.45;;;0.75;;
72974;SDS011;61166;54.228;37.632;2022-11-12T16:08:34;2.05;;;0.95;;
72974;SDS011;61166;54.228;37.632;2022-11-12T16:11:01;2.78;;;0.73;;
72974;SDS011;61166;54.228;37.632;2022-11-12T16:13:30;2.37;;;0.60;;
72974;SDS011;61166;54.228;37.632;2022-11-12T16:16:03;2.25;;;0.98;;
72974;SDS011;61166;54.228;37.632;2022-11-12T16:18:32;2.67;;;0.80;;
72974;SDS011;61166;54.228;37.632;2022-11-12T16:20:58;2.17;;;0.73;;
72974;SDS011;61166;54.228;37.632;2022-11-12T16:23:25;2.85;;;1.40;;
72974;SDS011;61166;54.228;37.632;2022-11-12T16:25:53;3.00;;;0.90;;
72974;SDS011;61166;54.228;37.632;2022-11-12T16:28:20;2.72;;;0.68;;
72974;SDS011;61166;54.228;37.632;2022-11-12T16:30:47;5.07;;;1.38;;
72974;SDS011;61166;54.228;37.632;2022-11-12T16:33:16;2.38;;;0.90;;
72974;SDS011;61166;54.228;37.632;2022-11-12T16:35:44;4.07;;;1.67;;
72974;SDS011;61166;54.228;37.632;2022-11-12T16:38:16;3.30;;;0.90;;
72974;SDS011;61166;54.228;37.632;2022-11-12T16:40:43;1.98;;;0.77;;
72974;SDS011;61166;54.228;37.632;2022-11-12T16:43:10;2.08;;;0.70;;
72974;SDS011;61166;54.228;37.632;2022-11-12T16:45:38;2.45;;;0.70;;
72974;SDS011;61166;54.228;37.632;2022-11-12T16:48:11;2.45;;;1.00;;
72974;SDS011;61166;54.228;37.632;2022-11-12T16:50:43;2.40;;;0.80;;
72974;SDS011;61166;54.228;37.632;2022-11-12T16:53:09;2.97;;;0.70;;
72974;SDS011;61166;54.228;37.632;2022-11-12T16:55:36;2.22;;;0.82;;
72974;SDS011;61166;54.228;37.632;2022-11-12T16:58:03;2.53;;;0.95;;
72974;SDS011;61166;54.228;37.632;2022-11-12T17:00:29;2.60;;;1.20;;